createdAt,value
2023-03-26T00:02:09.405Z,3.18
2023-03-26T00:04:38.478Z,3.23
2023-03-26T00:07:07.170Z,3.34
2023-03-26T00:09:35.738Z,3.26
2023-03-26T00:12:04.555Z,3.25
2023-03-26T00:14:35.529Z,3.26
2023-03-26T00:17:04.452Z,3.35
2023-03-26T00:19:33.977Z,3.34
2023-03-26T00:22:03.852Z,3.28
2023-03-26T00:24:32.541Z,3.32
2023-03-26T00:27:01.224Z,3.37
2023-03-26T00:29:33.296Z,3.25
2023-03-26T00:32:03.407Z,3.49
2023-03-26T00:34:34.504Z,3.37
2023-03-26T00:37:03.286Z,3.48
2023-03-26T00:39:33.781Z,3.34
2023-03-26T00:42:06.900Z,3.46
2023-03-26T00:44:35.883Z,3.39
2023-03-26T00:47:06.517Z,3.49
2023-03-26T00:49:35.432Z,3.54
2023-03-26T00:52:04.190Z,3.51
2023-03-26T00:54:32.810Z,3.55
2023-03-26T00:57:01.553Z,3.60
2023-03-26T00:59:30.556Z,3.55
2023-03-26T01:02:00.363Z,3.56
2023-03-26T01:04:34.950Z,3.67
2023-03-26T01:07:13.415Z,3.62
2023-03-26T01:09:50.311Z,3.73
2023-03-26T01:12:23.489Z,3.70
2023-03-26T01:14:56.733Z,3.70
2023-03-26T01:17:25.968Z,3.72
2023-03-26T01:20:11.955Z,3.74
2023-03-26T01:22:44.115Z,3.69
2023-03-26T01:25:14.397Z,3.76
2023-03-26T01:27:50.128Z,3.86
2023-03-26T01:30:31.022Z,3.65
2023-03-26T01:33:13.797Z,3.80
2023-03-26T01:35:51.425Z,3.81
2023-03-26T01:38:32.027Z,3.87
2023-03-26T01:41:11.739Z,3.81
2023-03-26T01:43:48.904Z,3.74
2023-03-26T01:46:20.494Z,3.77
2023-03-26T01:48:50.516Z,3.77
2023-03-26T01:51:29.952Z,3.76
2023-03-26T01:54:00.276Z,3.82
2023-03-26T01:56:39.144Z,3.77
2023-03-26T01:59:29.499Z,3.74
2023-03-26T02:02:11.411Z,3.81
2023-03-26T02:04:48.291Z,3.82
2023-03-26T02:07:28.826Z,3.90
2023-03-26T02:10:05.584Z,3.84
2023-03-26T02:12:37.797Z,3.90
2023-03-26T02:15:08.597Z,3.90
2023-03-26T02:17:40.340Z,3.96
2023-03-26T02:20:14.355Z,3.98
2023-03-26T02:22:46.053Z,3.95
2023-03-26T02:25:19.817Z,3.92
2023-03-26T02:27:53.233Z,3.99
2023-03-26T02:30:26.752Z,3.89
2023-03-26T02:33:00.135Z,3.98
2023-03-26T02:35:36.758Z,3.94
2023-03-26T02:38:06.786Z,3.88
2023-03-26T02:40:35.461Z,3.85
2023-03-26T02:43:05.589Z,3.95
2023-03-26T02:45:35.256Z,3.98
2023-03-26T02:48:08.083Z,4.02
2023-03-26T02:50:54.814Z,3.99
2023-03-26T02:53:53.795Z,3.93
2023-03-26T02:57:00.778Z,4.07
2023-03-26T02:59:52.883Z,4.01
2023-03-26T03:02:48.435Z,3.93
2023-03-26T03:05:43.232Z,4.04
2023-03-26T03:08:24.521Z,3.96
2023-03-26T03:11:16.300Z,4.05
2023-03-26T03:13:47.412Z,4.12
2023-03-26T03:16:24.808Z,4.07
2023-03-26T03:18:58.171Z,4.18
2023-03-26T03:21:38.870Z,4.23
2023-03-26T03:24:09.551Z,4.18
2023-03-26T03:26:45.926Z,4.14
2023-03-26T03:29:32.816Z,4.21
2023-03-26T03:32:22.980Z,4.14
2023-03-26T03:34:54.108Z,4.04
2023-03-26T03:37:23.473Z,4.05
2023-03-26T03:39:55.688Z,4.09
2023-03-26T03:42:27.593Z,4.18
2023-03-26T03:44:59.138Z,4.18
2023-03-26T03:47:47.122Z,4.29
2023-03-26T03:50:20.110Z,4.26
2023-03-26T03:53:07.170Z,4.25
2023-03-26T03:55:38.374Z,4.16
2023-03-26T03:58:09.267Z,4.27
2023-03-26T04:00:41.734Z,4.18
2023-03-26T04:03:34.054Z,4.07
2023-03-26T04:06:11.140Z,4.28
2023-03-26T04:08:40.932Z,4.21
2023-03-26T04:11:09.931Z,4.21
2023-03-26T04:13:41.226Z,4.28
2023-03-26T04:16:33.735Z,4.30
2023-03-26T04:19:04.967Z,4.37
2023-03-26T04:21:38.124Z,4.34
2023-03-26T04:24:08.163Z,4.25
2023-03-26T04:26:56.326Z,4.45
2023-03-26T04:29:38.341Z,4.37
2023-03-26T04:32:08.251Z,4.34
2023-03-26T04:34:38.461Z,4.42
2023-03-26T04:37:19.089Z,4.44
2023-03-26T04:39:55.551Z,4.53
2023-03-26T04:42:41.704Z,4.52
2023-03-26T04:45:22.727Z,4.55
2023-03-26T04:47:58.305Z,4.58
2023-03-26T04:50:29.050Z,4.71
2023-03-26T04:52:59.178Z,4.72
2023-03-26T04:56:17.418Z,4.77
2023-03-26T04:59:26.655Z,4.92
2023-03-26T05:01:57.949Z,4.79
2023-03-26T05:04:29.637Z,4.89
2023-03-26T05:07:02.287Z,4.84
2023-03-26T05:09:47.886Z,5.00
2023-03-26T05:12:17.928Z,5.03
2023-03-26T05:14:54.677Z,5.05
2023-03-26T05:17:44.328Z,5.12
2023-03-26T05:20:26.442Z,5.05
2023-03-26T05:22:57.006Z,5.22
2023-03-26T05:25:37.078Z,5.17
2023-03-26T05:28:12.509Z,5.27
2023-03-26T05:30:54.460Z,5.26
2023-03-26T05:33:25.258Z,5.47
2023-03-26T05:36:09.321Z,5.47
2023-03-26T05:38:40.135Z,5.55
2023-03-26T05:41:12.086Z,5.50
2023-03-26T05:43:44.953Z,5.63
2023-03-26T05:46:18.173Z,5.66
2023-03-26T05:48:47.366Z,5.74
2023-03-26T05:51:16.902Z,5.76
2023-03-26T05:53:57.760Z,5.77
2023-03-26T05:56:52.829Z,6.17
2023-03-26T05:59:40.032Z,6.27
2023-03-26T06:02:20.761Z,6.34
2023-03-26T06:05:10.055Z,6.43
2023-03-26T06:07:47.960Z,6.54
2023-03-26T06:10:21.414Z,6.67
2023-03-26T06:12:50.104Z,6.87
2023-03-26T06:15:22.168Z,6.77
2023-03-26T06:18:07.297Z,7.02
2023-03-26T06:20:48.139Z,7.05
2023-03-26T06:23:39.633Z,7.16
2023-03-26T06:26:14.512Z,7.11
2023-03-26T06:29:01.533Z,7.26
2023-03-26T06:32:09.073Z,7.28
2023-03-26T06:34:54.573Z,7.51
2023-03-26T06:37:23.354Z,7.59
2023-03-26T06:39:57.314Z,7.53
2023-03-26T06:43:07.433Z,7.54
2023-03-26T06:45:58.865Z,7.47
2023-03-26T06:48:40.001Z,7.51
2023-03-26T06:51:31.983Z,7.58
2023-03-26T06:54:04.028Z,7.52
2023-03-26T06:56:57.641Z,7.51
2023-03-26T07:00:06.926Z,7.59
2023-03-26T07:02:57.994Z,7.68
2023-03-26T07:05:56.169Z,7.77
2023-03-26T07:08:55.549Z,7.82
2023-03-26T07:11:43.194Z,7.81
2023-03-26T07:14:32.655Z,7.95
2023-03-26T07:17:21.671Z,8.02
2023-03-26T07:20:13.002Z,7.98
2023-03-26T07:22:43.669Z,7.87
2023-03-26T07:25:18.859Z,7.97
2023-03-26T07:28:42.204Z,7.91
2023-03-26T07:31:47.274Z,7.94
2023-03-26T07:35:00.956Z,7.84
2023-03-26T07:37:52.838Z,7.75
2023-03-26T07:41:06.145Z,7.72
2023-03-26T07:44:38.975Z,7.60
2023-03-26T07:47:33.186Z,7.48
2023-03-26T07:50:42.885Z,7.50
2023-03-26T07:53:23.271Z,7.48
2023-03-26T07:56:23.586Z,7.48
2023-03-26T07:59:32.208Z,7.51
2023-03-26T08:02:52.743Z,7.53
2023-03-26T08:05:52.810Z,7.56
2023-03-26T08:08:42.241Z,7.58
2023-03-26T08:11:47.550Z,7.54
2023-03-26T08:14:40.986Z,7.59
2023-03-26T08:17:14.533Z,7.65
2023-03-26T08:20:02.270Z,7.62
2023-03-26T08:22:41.160Z,7.71
2023-03-26T08:25:27.690Z,7.72
2023-03-26T08:28:17.145Z,7.69
2023-03-26T08:30:47.070Z,7.81
2023-03-26T08:33:20.787Z,7.82
2023-03-26T08:35:50.780Z,7.91
2023-03-26T08:38:22.769Z,7.99
2023-03-26T08:41:47.065Z,8.17
2023-03-26T08:45:13.479Z,8.45
2023-03-26T08:48:31.475Z,8.61
2023-03-26T08:51:38.296Z,8.81
2023-03-26T08:54:32.627Z,8.87
2023-03-26T08:57:28.220Z,8.87
2023-03-26T09:00:35.115Z,9.06
2023-03-26T09:03:37.299Z,9.07
2023-03-26T09:07:13.936Z,9.01
2023-03-26T09:10:38.037Z,9.19
2023-03-26T09:14:10.792Z,9.16
2023-03-26T09:17:24.432Z,9.19
2023-03-26T09:20:42.254Z,9.17
2023-03-26T09:24:02.094Z,9.31
2023-03-26T09:26:51.456Z,9.30
2023-03-26T09:30:05.072Z,9.16
2023-03-26T09:33:33.642Z,9.12
2023-03-26T09:36:27.214Z,9.11
2023-03-26T09:39:11.086Z,9.21
2023-03-26T09:41:45.470Z,9.23
2023-03-26T09:45:06.257Z,9.22
2023-03-26T09:48:29.349Z,9.25
2023-03-26T09:51:51.663Z,9.29
2023-03-26T09:55:08.507Z,9.34
2023-03-26T09:58:16.173Z,9.34
2023-03-26T10:01:01.580Z,9.35
2023-03-26T10:03:43.850Z,9.24
2023-03-26T10:07:00.993Z,9.26
2023-03-26T10:09:48.426Z,9.20
2023-03-26T10:12:36.864Z,9.12
2023-03-26T10:15:32.505Z,9.12
2023-03-26T10:18:27.353Z,9.17
2023-03-26T10:21:08.947Z,9.16
2023-03-26T10:24:08.418Z,9.11
2023-03-26T10:27:10.779Z,9.01
2023-03-26T10:30:38.946Z,8.92
2023-03-26T10:33:25.105Z,8.90
2023-03-26T10:36:22.260Z,8.84
2023-03-26T10:39:36.371Z,8.70
2023-03-26T10:42:43.303Z,8.29
2023-03-26T10:45:41.190Z,8.06
2023-03-26T10:48:42.021Z,7.91
2023-03-26T10:51:43.559Z,7.94
2023-03-26T10:54:30.177Z,7.70
2023-03-26T10:57:02.139Z,7.60
2023-03-26T10:59:33.825Z,7.61
2023-03-26T11:02:31.021Z,7.60
2023-03-26T11:05:51.405Z,7.51
2023-03-26T11:08:31.513Z,7.26
2023-03-26T11:11:17.785Z,7.11
2023-03-26T11:14:02.817Z,6.97
2023-03-26T11:16:54.935Z,6.81
2023-03-26T11:19:40.686Z,6.75
2023-03-26T11:22:28.714Z,6.64
2023-03-26T11:25:22.384Z,6.46
2023-03-26T11:28:09.447Z,6.37
2023-03-26T11:30:49.687Z,6.24
2023-03-26T11:33:24.201Z,6.05
2023-03-26T11:36:02.694Z,6.02
2023-03-26T11:38:38.609Z,5.92
2023-03-26T11:41:16.238Z,6.00
2023-03-26T11:44:29.968Z,5.89
2023-03-26T11:47:10.287Z,5.83
2023-03-26T11:49:41.744Z,5.89
2023-03-26T11:52:15.796Z,5.96
2023-03-26T11:54:48.225Z,5.97
2023-03-26T11:57:23.182Z,6.00
2023-03-26T11:59:59.118Z,5.93
2023-03-26T12:02:32.747Z,5.93
2023-03-26T12:05:19.563Z,5.77
2023-03-26T12:07:54.510Z,5.79
2023-03-26T12:10:32.186Z,5.79
2023-03-26T12:13:04.162Z,5.88
2023-03-26T12:15:33.348Z,5.94
2023-03-26T12:18:26.161Z,5.76
2023-03-26T12:21:08.495Z,5.87
2023-03-26T12:23:51.819Z,5.79
2023-03-26T12:26:22.290Z,5.90
2023-03-26T12:28:52.381Z,5.81
2023-03-26T12:31:21.162Z,5.65
2023-03-26T12:34:08.206Z,5.77
2023-03-26T12:36:39.169Z,5.73
2023-03-26T12:40:09.487Z,5.65
2023-03-26T12:44:56.160Z,5.49
2023-03-26T12:45:24.244Z,5.48
2023-03-26T12:48:01.640Z,5.52
2023-03-26T12:51:08.518Z,5.32
2023-03-26T12:53:59.491Z,5.28
2023-03-26T12:56:38.759Z,5.27
2023-03-26T12:59:36.514Z,5.31
2023-03-26T13:02:40.882Z,5.40
2023-03-26T13:05:31.589Z,5.37
2023-03-26T13:08:24.960Z,5.39
2023-03-26T13:11:06.273Z,5.19
2023-03-26T13:14:04.751Z,5.15
2023-03-26T13:16:43.871Z,5.28
2023-03-26T13:19:20.094Z,5.11
2023-03-26T13:22:09.067Z,5.21
2023-03-26T13:24:52.873Z,5.34
2023-03-26T13:27:38.092Z,5.32
2023-03-26T13:30:29.142Z,5.19
2023-03-26T13:33:23.234Z,5.22
2023-03-26T13:36:19.013Z,5.25
2023-03-26T13:39:08.160Z,5.25
2023-03-26T13:42:10.344Z,5.31
2023-03-26T13:45:05.000Z,5.36
2023-03-26T13:47:43.251Z,5.19
2023-03-26T13:50:23.570Z,5.05
2023-03-26T13:52:58.848Z,5.14
2023-03-26T13:55:34.229Z,5.04
2023-03-26T13:58:12.157Z,5.16
2023-03-26T14:00:56.286Z,5.13
2023-03-26T14:03:40.858Z,4.97
2023-03-26T14:06:19.672Z,5.02
2023-03-26T14:08:57.459Z,4.97
2023-03-26T14:11:45.080Z,4.93
2023-03-26T14:14:20.087Z,5.02
2023-03-26T14:16:55.969Z,5.06
2023-03-26T14:19:51.270Z,5.01
2023-03-26T14:22:31.922Z,4.99
2023-03-26T14:25:27.463Z,4.90
2023-03-26T14:28:17.594Z,4.81
2023-03-26T14:31:11.364Z,4.76
2023-03-26T14:34:02.350Z,4.90
2023-03-26T14:37:06.133Z,4.83
2023-03-26T14:40:14.711Z,4.81
2023-03-26T14:42:56.512Z,4.85
2023-03-26T14:46:01.319Z,4.77
2023-03-26T14:49:06.966Z,4.72
2023-03-26T14:52:10.679Z,4.53
2023-03-26T14:54:45.141Z,4.62
2023-03-26T14:58:03.913Z,4.43
2023-03-26T15:01:26.724Z,4.50
2023-03-26T15:04:48.351Z,4.51
2023-03-26T15:07:50.335Z,4.40
2023-03-26T15:11:08.315Z,4.34
2023-03-26T15:14:00.406Z,4.41
2023-03-26T15:17:16.218Z,4.43
2023-03-26T15:20:40.672Z,4.30
2023-03-26T15:23:54.046Z,4.44
2023-03-26T15:27:41.011Z,4.42
2023-03-26T15:31:10.815Z,4.24
2023-03-26T15:34:30.924Z,4.11
2023-03-26T15:37:57.132Z,3.99
2023-03-26T15:40:46.642Z,3.88
2023-03-26T15:43:20.101Z,3.86
2023-03-26T15:45:55.006Z,3.78
2023-03-26T15:48:56.522Z,3.70
2023-03-26T15:51:49.710Z,3.69
2023-03-26T15:54:27.900Z,3.58
2023-03-26T15:57:17.249Z,3.55
2023-03-26T16:00:15.324Z,3.28
2023-03-26T16:02:58.296Z,3.26
2023-03-26T16:05:52.545Z,3.20
2023-03-26T16:08:38.723Z,3.15
2023-03-26T16:11:12.649Z,3.14
2023-03-26T16:13:46.099Z,3.07
2023-03-26T16:16:57.480Z,3.13
2023-03-26T16:19:52.004Z,3.13
2023-03-26T16:22:47.434Z,3.11
2023-03-26T16:25:35.350Z,3.15
2023-03-26T16:28:27.640Z,3.13
2023-03-26T16:31:38.363Z,3.03
2023-03-26T16:34:28.845Z,2.94
2023-03-26T16:37:00.824Z,3.07
2023-03-26T16:39:44.331Z,3.07
2023-03-26T16:42:37.751Z,3.11
2023-03-26T16:45:24.122Z,3.04
2023-03-26T16:48:07.967Z,3.04
2023-03-26T16:50:48.721Z,3.09
2023-03-26T16:53:34.579Z,3.09
2023-03-26T16:56:13.765Z,2.99
2023-03-26T16:58:56.368Z,3.07
2023-03-26T17:01:42.979Z,2.99
2023-03-26T17:04:20.743Z,3.00
2023-03-26T17:07:08.767Z,2.98
2023-03-26T17:09:52.644Z,2.87
2023-03-26T17:12:35.207Z,2.90
2023-03-26T17:15:25.438Z,2.88
2023-03-26T17:18:19.053Z,2.79
2023-03-26T17:21:03.524Z,2.78
2023-03-26T17:24:04.093Z,2.65
2023-03-26T17:26:52.255Z,2.76
2023-03-26T17:29:58.068Z,2.68
2023-03-26T17:33:07.571Z,2.64
2023-03-26T17:35:42.159Z,2.69
2023-03-26T17:39:01.166Z,2.65
2023-03-26T17:41:56.951Z,2.67
2023-03-26T17:44:47.135Z,2.50
2023-03-26T17:47:40.550Z,2.42
2023-03-26T17:50:16.558Z,2.53
2023-03-26T17:52:58.967Z,2.58
2023-03-26T17:55:32.529Z,2.61
2023-03-26T17:58:03.563Z,2.58
2023-03-26T18:00:37.258Z,2.45
2023-03-26T18:03:15.161Z,2.40
2023-03-26T18:05:44.081Z,2.37
2023-03-26T18:08:41.829Z,2.33
2023-03-26T18:11:57.017Z,2.39
2023-03-26T18:15:17.786Z,2.53
2023-03-26T18:17:48.414Z,2.44
2023-03-26T18:20:24.648Z,2.38
2023-03-26T18:22:54.658Z,2.41
2023-03-26T18:25:27.947Z,2.34
2023-03-26T18:27:59.671Z,2.44
2023-03-26T18:30:28.310Z,2.37
2023-03-26T18:33:03.584Z,2.44
2023-03-26T18:35:42.800Z,2.30
2023-03-26T18:38:35.762Z,2.37
2023-03-26T18:41:09.493Z,2.46
2023-03-26T18:43:44.299Z,2.34
2023-03-26T18:46:16.189Z,2.41
2023-03-26T18:48:47.498Z,2.28
2023-03-26T18:51:23.075Z,2.33
2023-03-26T18:53:57.885Z,2.39
2023-03-26T18:56:33.842Z,2.39
2023-03-26T18:59:06.868Z,2.30
2023-03-26T19:01:38.514Z,2.24
2023-03-26T19:04:09.526Z,2.22
2023-03-26T19:06:42.918Z,2.26
2023-03-26T19:09:30.369Z,2.21
2023-03-26T19:12:09.156Z,2.22
2023-03-26T19:17:37.716Z,2.28
2023-03-26T19:20:10.220Z,2.29
2023-03-26T19:22:41.469Z,2.13
2023-03-26T19:25:23.713Z,2.15
2023-03-26T19:27:53.466Z,2.10
2023-03-26T19:30:32.957Z,1.93
2023-03-26T19:33:15.910Z,1.93
2023-03-26T19:35:45.918Z,2.03
2023-03-26T19:38:23.828Z,1.97
2023-03-26T19:40:55.552Z,1.88
2023-03-26T19:43:26.313Z,1.94
2023-03-26T19:46:00.430Z,1.93
2023-03-26T19:48:46.764Z,1.98
2023-03-26T19:51:25.690Z,2.01
2023-03-26T19:53:56.847Z,2.04
2023-03-26T19:56:25.728Z,1.95
2023-03-26T19:58:55.075Z,1.96
2023-03-26T20:01:26.750Z,1.87
2023-03-26T20:04:01.342Z,1.99
2023-03-26T20:06:42.574Z,1.86
2023-03-26T20:09:13.659Z,1.81
2023-03-26T20:11:42.682Z,1.89
2023-03-26T20:14:19.936Z,1.86
2023-03-26T20:16:48.833Z,1.87
2023-03-26T20:19:19.279Z,1.91
2023-03-26T20:21:47.957Z,1.90
2023-03-26T20:24:18.743Z,1.84
2023-03-26T20:26:48.026Z,1.84
2023-03-26T20:29:17.006Z,1.89
2023-03-26T20:31:45.991Z,1.87
2023-03-26T20:34:20.697Z,1.73
2023-03-26T20:36:54.393Z,1.77
2023-03-26T20:39:24.642Z,1.97
2023-03-26T20:41:56.336Z,1.85
2023-03-26T20:44:26.884Z,1.82
2023-03-26T20:46:56.650Z,1.80
2023-03-26T20:49:29.541Z,1.76
2023-03-26T20:51:59.555Z,1.81
2023-03-26T20:54:29.721Z,1.86
2023-03-26T20:56:58.526Z,1.78
2023-03-26T20:59:28.911Z,1.80
2023-03-26T21:02:00.300Z,1.87
2023-03-26T21:04:30.589Z,1.78
2023-03-26T21:07:07.314Z,1.81
2023-03-26T21:09:44.981Z,1.69
2023-03-26T21:12:25.691Z,1.76
2023-03-26T21:14:55.832Z,1.77
2023-03-26T21:17:25.721Z,1.66
2023-03-26T21:19:57.669Z,1.78
2023-03-26T21:22:37.496Z,1.75
2023-03-26T21:25:29.339Z,1.57
2023-03-26T21:28:35.834Z,1.67
2023-03-26T21:31:18.314Z,1.60
2023-03-26T21:33:49.340Z,1.58
2023-03-26T21:36:23.023Z,1.62
2023-03-26T21:38:54.729Z,1.60
2023-03-26T21:41:35.988Z,1.66
2023-03-26T21:44:05.481Z,1.65
2023-03-26T21:46:35.373Z,1.64
2023-03-26T21:49:05.208Z,1.53
2023-03-26T21:51:36.471Z,1.62
2023-03-26T21:54:07.099Z,1.61
2023-03-26T21:56:46.774Z,1.45
2023-03-26T21:59:32.794Z,1.48
2023-03-26T22:02:12.417Z,1.53
2023-03-26T22:04:50.519Z,1.48
2023-03-26T22:07:26.821Z,1.44
2023-03-26T22:09:56.360Z,1.41
2023-03-26T22:12:25.694Z,1.42
2023-03-26T22:14:54.349Z,1.47
2023-03-26T22:17:23.806Z,1.43
2023-03-26T22:19:52.478Z,1.51
2023-03-26T22:22:22.476Z,1.54
2023-03-26T22:24:51.095Z,1.37
2023-03-26T22:27:19.708Z,1.35
2023-03-26T22:29:48.331Z,1.43
2023-03-26T22:32:16.960Z,1.42
2023-03-26T22:34:46.088Z,1.53
2023-03-26T22:37:16.287Z,1.51
2023-03-26T22:39:46.331Z,1.47
2023-03-26T22:42:15.823Z,1.48
2023-03-26T22:44:44.471Z,1.50
2023-03-26T22:47:13.713Z,1.43
2023-03-26T22:49:42.348Z,1.37
2023-03-26T22:52:11.248Z,1.48
2023-03-26T22:54:39.910Z,1.50
2023-03-26T22:57:10.015Z,1.44
2023-03-26T22:59:38.626Z,1.32
2023-03-26T23:02:07.405Z,1.39
2023-03-26T23:04:37.749Z,1.32
2023-03-26T23:07:07.048Z,1.37
2023-03-26T23:09:36.671Z,1.32
2023-03-26T23:12:06.336Z,1.42
2023-03-26T23:14:36.310Z,1.24
2023-03-26T23:17:05.284Z,1.30
2023-03-26T23:19:34.704Z,1.20
2023-03-26T23:22:03.364Z,1.23
2023-03-26T23:24:31.991Z,1.34
2023-03-26T23:27:00.648Z,1.38
2023-03-26T23:29:30.198Z,1.36
2023-03-26T23:32:00.254Z,1.27
2023-03-26T23:34:28.897Z,1.27
2023-03-26T23:36:58.116Z,1.28
2023-03-26T23:39:28.712Z,1.23
2023-03-26T23:41:57.363Z,1.22
2023-03-26T23:44:25.974Z,1.26
2023-03-26T23:46:58.059Z,1.23
2023-03-26T23:49:28.257Z,1.23
2023-03-26T23:51:56.866Z,1.20
2023-03-26T23:54:25.894Z,1.25
2023-03-26T23:56:55.084Z,1.25
2023-03-26T23:59:23.749Z,1.35
